createdAt,value
2022-09-07T00:00:40.334Z,17.76
2022-09-07T00:03:07.092Z,17.70
2022-09-07T00:05:34.286Z,17.65
2022-09-07T00:08:00.971Z,17.64
2022-09-07T00:10:27.862Z,17.62
2022-09-07T00:12:54.481Z,17.62
2022-09-07T00:15:21.009Z,17.59
2022-09-07T00:17:47.550Z,17.53
2022-09-07T00:20:15.091Z,17.53
2022-09-07T00:22:41.675Z,17.53
2022-09-07T00:25:08.657Z,17.52
2022-09-07T00:27:35.195Z,17.50
2022-09-07T00:30:01.738Z,17.49
2022-09-07T00:32:28.310Z,17.46
2022-09-07T00:34:54.861Z,17.44
2022-09-07T00:37:21.447Z,17.43
2022-09-07T00:39:48.309Z,17.41
2022-09-07T00:42:16.451Z,17.39
2022-09-07T00:44:42.920Z,17.39
2022-09-07T00:47:35.807Z,17.34
2022-09-07T00:50:11.421Z,17.31
2022-09-07T00:52:40.989Z,17.31
2022-09-07T00:55:12.212Z,17.30
2022-09-07T00:57:43.302Z,17.29
2022-09-07T01:00:10.349Z,17.27
2022-09-07T01:02:37.267Z,17.28
2022-09-07T01:05:27.617Z,17.24
2022-09-07T01:07:56.308Z,17.23
2022-09-07T01:10:26.440Z,17.22
2022-09-07T01:12:53.127Z,17.25
2022-09-07T01:15:21.963Z,17.27
2022-09-07T01:18:00.883Z,17.26
2022-09-07T01:20:51.542Z,17.25
2022-09-07T01:23:17.990Z,17.25
2022-09-07T01:25:53.786Z,17.20
2022-09-07T01:28:26.599Z,17.18
2022-09-07T01:31:27.836Z,17.14
2022-09-07T01:34:21.299Z,17.05
2022-09-07T01:37:05.285Z,17.02
2022-09-07T01:39:42.311Z,17.05
2022-09-07T01:42:13.633Z,17.04
2022-09-07T01:44:47.088Z,16.99
2022-09-07T01:47:20.646Z,16.96
2022-09-07T01:50:01.983Z,16.99
2022-09-07T01:52:38.494Z,16.94
2022-09-07T01:55:14.860Z,16.96
2022-09-07T01:57:47.981Z,16.94
2022-09-07T02:00:19.877Z,16.89
2022-09-07T02:02:59.488Z,16.86
2022-09-07T02:05:39.886Z,16.86
2022-09-07T02:08:15.031Z,16.86
2022-09-07T02:10:50.437Z,16.84
2022-09-07T02:13:36.067Z,16.78
2022-09-07T02:16:10.982Z,16.73
2022-09-07T02:18:44.052Z,16.73
2022-09-07T02:21:11.209Z,16.73
2022-09-07T02:23:49.831Z,16.68
2022-09-07T02:26:22.633Z,16.66
2022-09-07T02:28:49.689Z,16.64
2022-09-07T02:31:16.480Z,16.60
2022-09-07T02:33:43.406Z,16.59
2022-09-07T02:36:13.555Z,16.55
2022-09-07T02:38:40.121Z,16.51
2022-09-07T02:41:30.965Z,16.48
2022-09-07T02:43:58.184Z,16.45
2022-09-07T02:46:46.263Z,16.45
2022-09-07T02:49:51.382Z,16.41
2022-09-07T02:52:17.846Z,16.37
2022-09-07T02:55:09.260Z,16.33
2022-09-07T02:58:00.940Z,16.30
2022-09-07T03:00:33.641Z,16.29
2022-09-07T03:03:00.214Z,16.29
2022-09-07T03:05:42.406Z,16.28
2022-09-07T03:08:38.271Z,16.26
2022-09-07T03:11:06.339Z,16.25
2022-09-07T03:13:33.547Z,16.24
2022-09-07T03:16:00.195Z,16.23
2022-09-07T03:18:27.999Z,16.24
2022-09-07T03:20:55.346Z,16.22
2022-09-07T03:23:22.089Z,16.23
2022-09-07T03:25:49.189Z,16.19
2022-09-07T03:28:16.299Z,16.18
2022-09-07T03:30:44.440Z,16.19
2022-09-07T03:33:11.598Z,16.17
2022-09-07T03:35:38.254Z,16.13
2022-09-07T03:38:04.822Z,16.11
2022-09-07T03:40:31.416Z,16.14
2022-09-07T03:42:57.966Z,16.17
2022-09-07T03:45:24.607Z,16.11
2022-09-07T03:47:51.217Z,16.11
2022-09-07T03:50:17.954Z,16.11
2022-09-07T03:52:44.689Z,16.09
2022-09-07T03:55:11.332Z,15.90
2022-09-07T03:57:37.955Z,15.91
2022-09-07T04:00:05.633Z,15.89
2022-09-07T04:02:32.274Z,16.08
2022-09-07T04:04:58.878Z,16.10
2022-09-07T04:07:25.435Z,16.11
2022-09-07T04:09:51.963Z,16.18
2022-09-07T04:12:18.608Z,16.21
2022-09-07T04:14:46.159Z,16.22
2022-09-07T04:17:12.836Z,16.28
2022-09-07T04:19:39.438Z,16.34
2022-09-07T04:22:06.001Z,16.38
2022-09-07T04:24:32.532Z,16.42
2022-09-07T04:26:59.171Z,16.47
2022-09-07T04:29:25.832Z,16.50
2022-09-07T04:31:52.366Z,16.51
2022-09-07T04:34:18.901Z,16.52
2022-09-07T04:36:45.515Z,16.47
2022-09-07T04:39:12.299Z,16.47
2022-09-07T04:41:39.055Z,16.44
2022-09-07T04:44:05.643Z,16.40
2022-09-07T04:46:34.622Z,16.45
2022-09-07T04:49:04.282Z,16.49
2022-09-07T04:51:32.255Z,16.51
2022-09-07T04:54:01.031Z,16.49
2022-09-07T04:56:28.108Z,16.49
2022-09-07T04:58:54.662Z,16.51
2022-09-07T05:01:23.396Z,16.57
2022-09-07T05:03:50.895Z,16.59
2022-09-07T05:06:21.845Z,16.63
2022-09-07T05:08:50.883Z,16.66
2022-09-07T05:11:18.710Z,16.68
2022-09-07T05:13:45.698Z,16.67
2022-09-07T05:16:16.969Z,16.68
2022-09-07T05:18:43.527Z,16.70
2022-09-07T05:21:12.715Z,16.73
2022-09-07T05:23:39.540Z,16.75
2022-09-07T05:26:06.918Z,16.77
2022-09-07T05:28:34.534Z,16.79
2022-09-07T05:31:21.425Z,16.81
2022-09-07T05:36:39.743Z,16.83
2022-09-07T05:39:07.295Z,16.87
2022-09-07T05:41:34.281Z,16.89
2022-09-07T05:46:47.761Z,16.94
2022-09-07T05:49:14.311Z,16.99
2022-09-07T05:51:41.228Z,16.99
2022-09-07T05:54:07.828Z,17.05
2022-09-07T05:56:36.158Z,17.10
2022-09-07T05:59:03.558Z,17.12
2022-09-07T06:01:30.372Z,17.14
2022-09-07T06:03:57.020Z,17.18
2022-09-07T06:06:23.916Z,17.17
2022-09-07T06:08:52.526Z,17.25
2022-09-07T06:11:22.670Z,17.31
2022-09-07T06:13:50.041Z,17.42
2022-09-07T06:16:18.575Z,17.42
2022-09-07T06:18:48.088Z,17.44
2022-09-07T06:21:15.748Z,17.46
2022-09-07T06:23:43.571Z,17.52
2022-09-07T06:26:11.205Z,17.66
2022-09-07T06:28:40.516Z,17.67
2022-09-07T06:31:08.231Z,17.80
2022-09-07T06:33:36.052Z,17.88
2022-09-07T06:36:05.739Z,17.92
2022-09-07T06:38:34.401Z,17.98
2022-09-07T06:43:54.374Z,18.17
2022-09-07T06:49:08.786Z,18.20
2022-09-07T06:51:35.389Z,18.27
2022-09-07T06:56:48.811Z,18.35
2022-09-07T06:59:15.334Z,18.38
2022-09-07T07:01:41.985Z,18.45
2022-09-07T07:04:08.566Z,18.50
2022-09-07T07:06:36.577Z,18.69
2022-09-07T07:09:05.708Z,18.86
2022-09-07T07:11:32.408Z,19.04
2022-09-07T07:13:59.991Z,19.12
2022-09-07T07:16:26.594Z,19.26
2022-09-07T07:18:57.061Z,19.40
2022-09-07T07:21:24.093Z,19.60
2022-09-07T07:23:52.587Z,19.72
2022-09-07T07:26:21.407Z,20.03
2022-09-07T07:29:06.038Z,20.34
2022-09-07T07:31:33.714Z,20.68
2022-09-07T07:34:00.403Z,21.00
2022-09-07T07:36:28.194Z,21.31
2022-09-07T07:44:17.581Z,21.91
2022-09-07T07:46:50.773Z,22.01
2022-09-07T07:49:17.661Z,22.07
2022-09-07T07:54:34.105Z,22.07
2022-09-07T07:57:00.605Z,22.18
2022-09-07T07:59:27.168Z,22.18
2022-09-07T08:01:54.011Z,22.35
2022-09-07T08:04:20.622Z,22.49
2022-09-07T08:06:47.140Z,22.62
2022-09-07T08:09:13.687Z,22.64
2022-09-07T08:11:40.554Z,22.80
2022-09-07T08:14:08.929Z,22.87
2022-09-07T08:16:36.383Z,22.82
2022-09-07T08:19:03.478Z,22.78
2022-09-07T08:21:30.082Z,22.76
2022-09-07T08:23:56.632Z,22.68
2022-09-07T08:26:23.197Z,22.62
2022-09-07T08:28:49.760Z,22.59
2022-09-07T08:31:17.462Z,22.49
2022-09-07T08:33:44.692Z,22.45
2022-09-07T08:36:19.962Z,22.39
2022-09-07T08:38:47.501Z,22.42
2022-09-07T08:41:44.671Z,22.37
2022-09-07T08:44:56.294Z,22.28
2022-09-07T08:47:40.998Z,22.29
2022-09-07T08:50:12.762Z,22.30
2022-09-07T08:52:51.948Z,22.38
2022-09-07T08:55:27.818Z,22.44
2022-09-07T08:58:04.265Z,22.45
2022-09-07T09:00:31.501Z,22.47
2022-09-07T09:06:27.611Z,22.53
2022-09-07T09:09:13.485Z,22.74
2022-09-07T09:11:49.157Z,22.94
2022-09-07T09:14:18.734Z,22.99
2022-09-07T09:16:50.478Z,22.97
2022-09-07T09:19:39.595Z,23.05
2022-09-07T09:22:09.456Z,23.05
2022-09-07T09:24:41.112Z,23.14
2022-09-07T09:27:09.743Z,23.27
2022-09-07T09:29:36.337Z,23.30
2022-09-07T09:32:33.231Z,23.41
2022-09-07T09:35:12.604Z,23.54
2022-09-07T09:37:41.249Z,23.47
2022-09-07T09:40:22.362Z,23.46
2022-09-07T09:42:59.631Z,23.63
2022-09-07T09:45:29.972Z,23.78
2022-09-07T09:47:58.278Z,23.97
2022-09-07T09:53:42.234Z,24.16
2022-09-07T09:56:09.438Z,24.27
2022-09-07T10:01:33.603Z,24.40
2022-09-07T10:04:34.869Z,24.57
2022-09-07T10:07:08.332Z,24.68
2022-09-07T10:09:41.224Z,24.71
2022-09-07T10:12:24.632Z,24.77
2022-09-07T10:14:51.547Z,24.88
2022-09-07T10:17:30.343Z,24.96
2022-09-07T10:20:01.651Z,25.22
2022-09-07T10:22:35.762Z,25.17
2022-09-07T10:25:04.913Z,25.01
2022-09-07T10:27:36.073Z,25.25
2022-09-07T10:30:07.093Z,25.22
2022-09-07T10:33:02.530Z,25.11
2022-09-07T10:35:34.372Z,25.09
2022-09-07T10:38:13.194Z,25.05
2022-09-07T10:41:01.114Z,25.42
2022-09-07T10:43:36.612Z,25.67
2022-09-07T10:52:44.553Z,25.39
2022-09-07T10:55:20.907Z,25.56
2022-09-07T10:58:08.419Z,25.60
2022-09-07T11:01:24.303Z,25.55
2022-09-07T11:04:04.181Z,25.10
2022-09-07T11:06:30.724Z,25.42
2022-09-07T11:09:20.035Z,25.47
2022-09-07T11:12:03.569Z,25.31
2022-09-07T11:14:36.822Z,25.26
2022-09-07T11:17:11.692Z,25.23
2022-09-07T11:19:52.147Z,25.58
2022-09-07T11:22:41.792Z,25.62
2022-09-07T11:25:31.606Z,25.76
2022-09-07T11:28:09.607Z,26.11
2022-09-07T11:31:00.212Z,26.10
2022-09-07T11:34:23.914Z,26.15
2022-09-07T11:36:39.088Z,26.40
2022-09-07T11:39:17.061Z,26.40
2022-09-07T11:42:01.238Z,26.64
2022-09-07T11:44:47.881Z,26.73
2022-09-07T11:47:42.408Z,26.91
2022-09-07T11:50:17.692Z,27.04
2022-09-07T11:52:55.886Z,27.32
2022-09-07T11:55:29.520Z,27.85
2022-09-07T11:58:35.426Z,27.49
2022-09-07T12:01:04.860Z,27.79
2022-09-07T12:03:43.766Z,27.78
2022-09-07T12:06:10.281Z,27.94
2022-09-07T12:08:55.406Z,28.18
2022-09-07T12:11:31.118Z,28.63
2022-09-07T12:14:48.992Z,28.82
2022-09-07T12:17:21.835Z,28.96
2022-09-07T12:20:10.151Z,29.05
2022-09-07T12:22:37.886Z,29.80
2022-09-07T12:25:09.629Z,30.05
2022-09-07T12:27:37.922Z,30.41
2022-09-07T12:30:04.481Z,30.71
2022-09-07T12:32:54.342Z,30.75
2022-09-07T12:35:28.150Z,30.43
2022-09-07T12:38:02.400Z,30.20
2022-09-07T12:40:29.158Z,30.70
2022-09-07T12:43:14.106Z,30.77
2022-09-07T12:45:40.614Z,31.31
2022-09-07T12:48:29.517Z,31.33
2022-09-07T12:51:16.091Z,31.82
2022-09-07T12:53:48.486Z,31.07
2022-09-07T12:57:29.142Z,30.28
2022-09-07T12:59:42.303Z,31.75
2022-09-07T13:02:23.883Z,31.82
2022-09-07T13:05:18.125Z,31.90
2022-09-07T13:08:08.702Z,32.12
2022-09-07T13:10:43.167Z,31.20
2022-09-07T13:13:15.769Z,30.24
2022-09-07T13:15:49.868Z,30.15
2022-09-07T13:18:28.646Z,30.24
2022-09-07T13:21:07.047Z,29.37
2022-09-07T13:23:35.794Z,29.23
2022-09-07T13:26:03.282Z,28.63
2022-09-07T13:28:37.089Z,28.52
2022-09-07T13:31:16.882Z,28.06
2022-09-07T13:33:47.656Z,28.06
2022-09-07T13:36:47.507Z,28.47
2022-09-07T13:39:18.909Z,28.47
2022-09-07T13:41:52.351Z,28.58
2022-09-07T13:44:26.730Z,28.51
2022-09-07T13:46:58.868Z,28.42
2022-09-07T13:49:44.176Z,28.33
2022-09-07T13:52:19.274Z,28.15
2022-09-07T13:55:08.656Z,27.86
2022-09-07T13:58:11.259Z,27.89
2022-09-07T14:00:50.233Z,27.59
2022-09-07T14:03:17.024Z,27.43
2022-09-07T14:05:43.706Z,27.59
2022-09-07T14:08:29.754Z,27.62
2022-09-07T14:10:56.293Z,27.73
2022-09-07T14:13:22.850Z,27.75
2022-09-07T14:15:50.967Z,27.41
2022-09-07T14:18:31.292Z,27.40
2022-09-07T14:20:58.764Z,27.23
2022-09-07T14:23:30.046Z,27.40
2022-09-07T14:26:26.393Z,27.49
2022-09-07T14:28:54.871Z,27.54
2022-09-07T14:31:23.962Z,27.51
2022-09-07T14:34:00.523Z,27.53
2022-09-07T14:36:45.359Z,28.08
2022-09-07T14:39:16.084Z,28.44
2022-09-07T14:41:43.549Z,28.67
2022-09-07T14:44:29.005Z,28.86
2022-09-07T14:46:57.431Z,29.01
2022-09-07T14:49:24.786Z,28.82
2022-09-07T14:51:52.950Z,28.74
2022-09-07T14:54:31.874Z,28.61
2022-09-07T14:57:11.633Z,28.66
2022-09-07T14:59:44.533Z,28.23
2022-09-07T15:02:18.167Z,28.41
2022-09-07T15:04:46.608Z,28.41
2022-09-07T15:07:48.754Z,27.99
2022-09-07T15:10:21.299Z,28.17
2022-09-07T15:12:49.513Z,28.26
2022-09-07T15:15:18.732Z,28.37
2022-09-07T15:17:45.896Z,28.39
2022-09-07T15:20:35.117Z,28.30
2022-09-07T15:23:08.810Z,28.48
2022-09-07T15:25:35.698Z,28.38
2022-09-07T15:28:02.501Z,28.32
2022-09-07T15:30:29.069Z,28.12
2022-09-07T15:32:57.373Z,28.26
2022-09-07T15:35:24.540Z,28.22
2022-09-07T15:38:59.424Z,28.03
2022-09-07T15:41:04.137Z,27.88
2022-09-07T15:43:31.479Z,27.97
2022-09-07T15:45:58.228Z,27.80
2022-09-07T15:48:25.629Z,27.72
2022-09-07T15:51:01.480Z,27.61
2022-09-07T15:56:20.308Z,27.21
2022-09-07T15:58:51.801Z,27.00
2022-09-07T16:04:05.069Z,26.84
2022-09-07T16:06:31.689Z,26.91
2022-09-07T16:08:58.272Z,26.77
2022-09-07T16:11:28.119Z,26.56
2022-09-07T16:13:57.371Z,26.64
2022-09-07T16:17:25.751Z,26.59
2022-09-07T16:19:15.226Z,26.56
2022-09-07T16:21:42.866Z,26.50
2022-09-07T16:24:09.858Z,26.44
2022-09-07T16:26:36.418Z,26.30
2022-09-07T16:29:03.495Z,26.25
2022-09-07T16:31:31.412Z,26.13
2022-09-07T16:33:58.138Z,26.10
2022-09-07T16:36:24.710Z,25.89
2022-09-07T16:39:01.336Z,25.92
2022-09-07T16:41:31.998Z,25.86
2022-09-07T16:43:59.109Z,25.78
2022-09-07T16:46:28.398Z,25.65
2022-09-07T16:48:55.294Z,25.59
2022-09-07T16:51:23.212Z,25.47
2022-09-07T16:53:51.693Z,25.47
2022-09-07T16:56:20.418Z,25.45
2022-09-07T16:58:51.067Z,25.36
2022-09-07T17:01:20.613Z,25.34
2022-09-07T17:03:51.199Z,25.35
2022-09-07T17:06:19.428Z,25.24
2022-09-07T17:08:47.121Z,25.20
2022-09-07T17:11:17.187Z,25.14
2022-09-07T17:13:44.768Z,25.12
2022-09-07T17:16:17.062Z,25.08
2022-09-07T17:21:37.027Z,25.02
2022-09-07T17:24:05.380Z,24.97
2022-09-07T17:26:32.631Z,24.83
2022-09-07T17:29:00.920Z,24.77
2022-09-07T17:34:20.127Z,24.77
2022-09-07T17:36:47.116Z,24.73
2022-09-07T17:39:16.021Z,24.70
2022-09-07T17:41:44.356Z,24.67
2022-09-07T17:44:11.329Z,24.58
2022-09-07T17:46:37.829Z,24.47
2022-09-07T17:49:07.016Z,24.46
2022-09-07T17:51:33.523Z,24.39
2022-09-07T17:54:09.546Z,24.31
2022-09-07T17:56:37.093Z,24.29
2022-09-07T18:01:50.586Z,24.15
2022-09-07T18:04:17.270Z,24.16
2022-09-07T18:06:43.879Z,24.12
2022-09-07T18:09:11.631Z,24.07
2022-09-07T18:11:46.693Z,24.02
2022-09-07T18:14:14.696Z,24.00
2022-09-07T18:16:41.745Z,23.97
2022-09-07T18:19:08.728Z,23.92
2022-09-07T18:21:37.254Z,23.85
2022-09-07T18:24:11.784Z,23.75
2022-09-07T18:26:39.987Z,23.73
2022-09-07T18:29:18.662Z,23.71
2022-09-07T18:31:54.224Z,23.66
2022-09-07T18:34:20.948Z,23.62
2022-09-07T18:36:47.560Z,23.56
2022-09-07T18:39:14.105Z,23.53
2022-09-07T18:41:40.968Z,23.45
2022-09-07T18:45:27.085Z,23.38
2022-09-07T18:46:54.534Z,23.33
2022-09-07T18:49:21.102Z,23.23
2022-09-07T18:54:34.207Z,23.12
2022-09-07T18:57:00.716Z,23.12
2022-09-07T18:59:27.242Z,23.09
2022-09-07T19:01:54.097Z,23.06
2022-09-07T19:04:21.155Z,23.04
2022-09-07T19:06:47.988Z,23.01
2022-09-07T19:09:14.579Z,22.91
2022-09-07T19:11:42.443Z,22.81
2022-09-07T19:14:08.936Z,22.82
2022-09-07T19:16:36.363Z,22.75
2022-09-07T19:19:06.181Z,22.73
2022-09-07T19:21:35.759Z,22.68
2022-09-07T19:24:04.826Z,22.68
2022-09-07T19:26:34.364Z,22.64
2022-09-07T19:29:02.344Z,22.58
2022-09-07T19:31:30.948Z,22.50
2022-09-07T19:34:02.440Z,22.45
2022-09-07T19:36:33.183Z,22.39
2022-09-07T19:39:00.755Z,22.30
2022-09-07T19:41:28.279Z,22.28
2022-09-07T19:43:54.799Z,22.19
2022-09-07T19:46:24.965Z,22.17
2022-09-07T19:48:52.100Z,22.11
2022-09-07T19:51:19.919Z,22.08
2022-09-07T19:53:47.294Z,22.05
2022-09-07T19:56:16.972Z,22.00
2022-09-07T19:58:45.199Z,21.95
2022-09-07T20:01:14.254Z,21.89
2022-09-07T20:03:41.950Z,21.81
2022-09-07T20:06:11.631Z,21.78
2022-09-07T20:08:39.447Z,21.69
2022-09-07T20:11:08.547Z,21.62
2022-09-07T20:13:37.058Z,21.57
2022-09-07T20:16:13.279Z,21.49
2022-09-07T20:18:40.174Z,21.49
2022-09-07T20:21:09.414Z,21.42
2022-09-07T20:23:36.494Z,21.28
2022-09-07T20:26:05.986Z,21.23
2022-09-07T20:28:34.432Z,21.17
2022-09-07T20:31:08.178Z,21.07
2022-09-07T20:33:35.109Z,21.08
2022-09-07T20:36:06.314Z,21.06
2022-09-07T20:38:42.118Z,21.00
2022-09-07T20:41:14.667Z,20.99
2022-09-07T20:43:41.267Z,21.00
2022-09-07T20:46:09.668Z,21.00
2022-09-07T20:48:37.538Z,20.94
2022-09-07T20:51:08.132Z,20.90
2022-09-07T20:53:35.187Z,20.83
2022-09-07T20:56:07.728Z,20.77
2022-09-07T20:58:35.393Z,20.74
2022-09-07T21:01:02.875Z,20.68
2022-09-07T21:03:30.036Z,20.65
2022-09-07T21:06:01.703Z,20.65
2022-09-07T21:08:28.552Z,20.56
2022-09-07T21:10:55.265Z,20.51
2022-09-07T21:13:21.799Z,20.45
2022-09-07T21:15:48.327Z,20.42
2022-09-07T21:18:18.712Z,20.33
2022-09-07T21:21:18.469Z,20.20
2022-09-07T21:23:43.068Z,20.10
2022-09-07T21:26:09.572Z,20.04
2022-09-07T21:28:36.054Z,20.00
2022-09-07T21:31:08.080Z,19.92
2022-09-07T21:33:36.033Z,19.85
2022-09-07T21:36:07.878Z,19.76
2022-09-07T21:38:35.700Z,19.68
2022-09-07T21:41:24.713Z,19.58
2022-09-07T21:43:58.456Z,19.49
2022-09-07T21:46:26.056Z,19.40
2022-09-07T21:48:53.076Z,19.31
2022-09-07T21:51:19.584Z,19.25
2022-09-07T21:53:51.583Z,19.18
2022-09-07T21:56:18.383Z,19.13
2022-09-07T21:58:44.959Z,19.07
2022-09-07T22:01:17.224Z,19.02
2022-09-07T22:03:45.568Z,18.96
2022-09-07T22:06:12.419Z,18.89
2022-09-07T22:08:40.450Z,18.87
2022-09-07T22:11:10.575Z,18.78
2022-09-07T22:13:37.623Z,18.70
2022-09-07T22:16:05.354Z,18.68
2022-09-07T22:18:32.271Z,18.62
2022-09-07T22:21:10.743Z,18.54
2022-09-07T22:23:40.133Z,18.50
2022-09-07T22:26:07.080Z,18.38
2022-09-07T22:28:34.500Z,18.32
2022-09-07T22:31:11.070Z,18.25
2022-09-07T22:33:38.202Z,18.20
2022-09-07T22:36:11.269Z,18.18
2022-09-07T22:38:38.285Z,18.13
2022-09-07T22:41:16.114Z,18.07
2022-09-07T22:43:43.496Z,18.02
2022-09-07T22:46:11.581Z,17.97
2022-09-07T22:48:39.344Z,17.92
2022-09-07T22:51:06.450Z,17.89
2022-09-07T22:53:35.547Z,17.82
2022-09-07T22:56:26.386Z,17.77
2022-09-07T22:58:56.338Z,17.70
2022-09-07T23:01:23.646Z,17.66
2022-09-07T23:03:51.594Z,17.61
2022-09-07T23:06:26.183Z,17.57
2022-09-07T23:08:54.435Z,17.52
2022-09-07T23:11:21.974Z,17.49
2022-09-07T23:13:53.115Z,17.43
2022-09-07T23:16:20.579Z,17.38
2022-09-07T23:18:48.310Z,17.32
2022-09-07T23:21:15.136Z,17.26
2022-09-07T23:23:41.663Z,17.22
2022-09-07T23:26:08.784Z,17.18
2022-09-07T23:28:35.358Z,17.13
2022-09-07T23:31:02.112Z,17.09
2022-09-07T23:33:28.675Z,17.05
2022-09-07T23:36:01.032Z,16.98
2022-09-07T23:38:28.298Z,16.92
2022-09-07T23:40:55.703Z,16.88
2022-09-07T23:43:23.335Z,16.82
2022-09-07T23:45:50.336Z,16.78
2022-09-07T23:48:16.844Z,16.75
2022-09-07T23:50:44.770Z,16.70
2022-09-07T23:53:11.952Z,16.68
2022-09-07T23:55:38.948Z,16.63
2022-09-07T23:58:05.869Z,16.60
